Time;durP1;ratioP1;P1;durP2;ratioP2;P2;SDS_P1;SDS_P2;PMS_P1;PMS_P2;Temp;Humidity;BMP_temperature;BMP_pressure;BME280_temperature;BME280_humidity;BME280_pressure;Samples;Min_cycle;Max_cycle;Signal;HPM_P1;HPM_P2
2022/03/12 00:00:00;;;;;;;;;6.75;4.00;;;;;10.11;83.68;100848.88;5031435;28;47901;-66
2022/03/12 00:02:30;;;;;;;;;4.50;4.50;;;;;10.10;83.29;100855.81;5032851;28;45596;-66
2022/03/12 00:04:56;;;;;;;;;3.00;1.00;;;;;10.10;83.17;100852.38;5033599;28;45463;-66
2022/03/12 00:07:22;;;;;;;;;4.00;3.00;;;;;10.08;83.30;100855.00;5037034;28;45458;-66
2022/03/12 00:09:48;;;;;;;;;3.50;3.00;;;;;10.08;83.33;100860.19;5032486;28;46913;-66
2022/03/12 00:12:13;;;;;;;;;3.25;3.25;;;;;10.04;84.06;100862.00;5034635;28;45932;-65
2022/03/12 00:14:39;;;;;;;;;6.25;3.75;;;;;10.02;84.05;100869.00;5045660;28;45509;-66
2022/03/12 00:17:05;;;;;;;;;6.25;5.50;;;;;10.03;84.20;100878.47;5050716;28;45475;-66
2022/03/12 00:19:31;;;;;;;;;4.25;4.25;;;;;10.04;83.68;100871.56;5049122;28;45297;-67
2022/03/12 00:21:58;;;;;;;;;6.00;3.50;;;;;10.02;84.25;100876.78;5047387;28;45275;-66
2022/03/12 00:24:25;;;;;;;;;3.25;3.25;;;;;10.01;83.20;100880.25;5043269;28;45284;-66
2022/03/12 00:26:50;;;;;;;;;8.25;5.00;;;;;10.01;82.74;100881.97;5026110;28;45532;-65
2022/03/12 00:29:16;;;;;;;;;5.00;4.50;;;;;10.00;82.93;100886.31;5039351;28;46985;-66
2022/03/12 00:31:43;;;;;;;;;4.00;2.00;;;;;10.03;83.79;100899.25;5034304;28;45268;-67
2022/03/12 00:34:09;;;;;;;;;4.00;4.00;;;;;10.06;83.12;100900.94;5033732;28;45399;-66
2022/03/12 00:36:34;;;;;;;;;2.75;2.25;;;;;10.13;83.15;100901.63;5027081;28;45257;-66
2022/03/12 00:39:00;;;;;;;;;2.00;2.00;;;;;10.16;83.26;100904.16;5036493;28;48108;-65
2022/03/12 00:41:26;;;;;;;;;6.00;3.50;;;;;10.23;83.26;100892.78;5026678;28;45268;-65
2022/03/12 00:43:52;;;;;;;;;4.50;4.00;;;;;10.29;82.45;100903.03;5029926;28;45419;-65
2022/03/12 00:46:17;;;;;;;;;3.00;3.00;;;;;10.32;82.31;100908.13;5031960;28;45870;-65
2022/03/12 00:48:43;;;;;;;;;7.50;4.00;;;;;10.34;82.59;100902.00;5020082;28;46503;-65
2022/03/12 00:51:09;;;;;;;;;5.75;4.00;;;;;10.40;82.51;100916.59;5033860;28;45211;-67
2022/03/12 00:53:36;;;;;;;;;4.00;4.00;;;;;10.44;82.09;100920.00;5031328;28;45504;-67
2022/03/12 00:56:02;;;;;;;;;3.00;3.00;;;;;10.48;82.42;100919.03;5026868;28;45281;-67
2022/03/12 00:58:28;;;;;;;;;3.25;2.75;;;;;10.50;81.88;100925.88;5029244;28;45363;-67
2022/03/12 01:00:53;;;;;;;;;5.50;4.00;;;;;10.53;81.98;100917.16;5033382;28;45307;-67
2022/03/12 01:03:18;;;;;;;;;2.25;2.00;;;;;10.56;82.04;100928.31;5031420;28;45338;-67
2022/03/12 01:05:49;;;;;;;;;8.75;3.50;;;;;10.60;81.25;100935.16;5026827;28;45445;-68
2022/03/12 01:08:20;;;;;;;;;4.00;4.00;;;;;10.61;80.84;100936.00;5028210;28;45463;-67
2022/03/12 01:10:46;;;;;;;;;4.50;3.50;;;;;10.61;81.25;100946.41;5033391;28;45677;-67
2022/03/12 01:13:12;;;;;;;;;4.75;3.00;;;;;10.56;80.99;100946.50;5021474;28;45205;-68
2022/03/12 01:15:39;;;;;;;;;2.00;1.25;;;;;10.55;80.85;100949.16;5033189;28;45519;-68
2022/03/12 01:18:13;;;;;;;;;3.00;2.75;;;;;10.52;80.68;100957.88;5032683;28;45351;-68
2022/03/12 01:20:40;;;;;;;;;7.00;2.50;;;;;10.49;80.57;100951.91;5027868;28;45234;-68
2022/03/12 01:23:06;;;;;;;;;6.50;3.50;;;;;10.48;80.79;100965.78;5026590;28;45319;-68
2022/03/12 01:25:31;;;;;;;;;6.50;3.00;;;;;10.47;80.47;100951.94;5032064;28;45253;-68
2022/03/12 01:27:56;;;;;;;;;3.25;2.00;;;;;10.48;80.20;100961.44;5032997;28;45502;-68
2022/03/12 01:30:27;;;;;;;;;8.50;6.75;;;;;10.46;80.59;100964.97;5028034;28;45275;-67
2022/03/12 01:32:52;;;;;;;;;4.25;4.25;;;;;10.47;80.74;100946.75;5026426;28;45261;-67
2022/03/12 01:35:17;;;;;;;;;6.75;5.00;;;;;10.45;80.37;100947.69;5031142;28;45244;-68
2022/03/12 01:37:43;;;;;;;;;3.00;3.00;;;;;10.40;79.85;100947.75;5032847;28;45270;-68
2022/03/12 01:40:09;;;;;;;;;3.00;3.00;;;;;10.33;80.59;100951.41;5038172;28;45223;-68
2022/03/12 01:42:35;;;;;;;;;4.50;4.50;;;;;10.29;80.27;100949.78;5039551;28;45406;-68
2022/03/12 01:45:00;;;;;;;;;4.00;2.75;;;;;10.24;81.01;100951.63;5035451;28;45421;-68
2022/03/12 01:47:26;;;;;;;;;3.00;3.00;;;;;10.16;80.83;100949.16;5037433;28;45446;-68
2022/03/12 01:49:52;;;;;;;;;3.75;3.50;;;;;10.12;80.97;100944.06;5038015;28;45295;-68
2022/03/12 01:52:18;;;;;;;;;3.75;3.00;;;;;10.09;81.11;100946.75;5037978;28;45401;-67
2022/03/12 01:54:44;;;;;;;;;6.25;2.25;;;;;10.09;80.94;100957.13;5046818;28;45493;-68
2022/03/12 01:57:10;;;;;;;;;3.00;2.25;;;;;10.05;81.80;100949.41;5050039;28;46685;-68
2022/03/12 01:59:36;;;;;;;;;4.50;4.50;;;;;10.07;81.18;100955.41;5049919;28;45438;-69
2022/03/12 02:02:03;;;;;;;;;6.00;3.00;;;;;10.09;81.33;100954.53;5049757;28;45238;-69
2022/03/12 02:04:29;;;;;;;;;5.00;2.75;;;;;10.11;81.05;100960.53;5052485;28;45170;-69
2022/03/12 02:06:58;;;;;;;;;3.00;3.00;;;;;10.13;81.63;100967.41;5050839;28;45353;-67
2022/03/12 02:09:24;;;;;;;;;3.50;3.00;;;;;10.17;81.55;100968.19;5050368;28;45321;-65
2022/03/12 02:11:51;;;;;;;;;2.75;2.00;;;;;10.17;81.76;100974.22;5041662;28;45417;-64
2022/03/12 02:14:20;;;;;;;;;7.00;3.00;;;;;10.21;81.50;100981.13;5029480;28;45411;-64
2022/03/12 02:16:58;;;;;;;;;3.50;2.50;;;;;10.23;81.36;100974.16;5026853;28;45574;-64
2022/03/12 02:19:25;;;;;;;;;7.50;4.00;;;;;10.24;81.54;100977.59;5029576;28;45434;-65
2022/03/12 02:21:55;;;;;;;;;3.00;3.00;;;;;10.22;82.08;100982.84;5033789;28;45545;-65
2022/03/12 02:24:22;;;;;;;;;3.75;3.00;;;;;10.22;81.64;100980.25;5031847;28;45759;-65
2022/03/12 02:26:48;;;;;;;;;6.00;3.00;;;;;10.23;82.11;100987.13;5033539;28;46619;-64
2022/03/12 02:29:20;;;;;;;;;6.75;3.00;;;;;10.20;81.96;100989.75;5033750;28;45858;-66
2022/03/12 02:31:48;;;;;;;;;6.75;3.75;;;;;10.17;81.34;100979.44;5034932;28;45419;-66
2022/03/12 02:34:19;;;;;;;;;6.00;3.75;;;;;10.16;81.37;100977.72;5035808;28;45248;-66
2022/03/12 02:36:45;;;;;;;;;6.00;4.00;;;;;10.17;81.66;100984.63;5029719;28;45301;-65
2022/03/12 02:39:12;;;;;;;;;2.75;2.75;;;;;10.18;81.69;100980.28;5040146;28;45434;-65
2022/03/12 02:41:38;;;;;;;;;5.00;2.75;;;;;10.17;81.58;100981.16;5037105;28;45347;-65
2022/03/12 02:44:03;;;;;;;;;2.25;2.25;;;;;10.15;81.14;100977.75;5033080;28;45581;-65
2022/03/12 02:46:30;;;;;;;;;7.00;3.00;;;;;10.12;81.33;100970.03;5041394;28;45336;-65
2022/03/12 02:48:56;;;;;;;;;4.50;4.50;;;;;10.09;80.99;100978.75;5042169;28;45276;-67
2022/03/12 02:51:22;;;;;;;;;8.50;4.00;;;;;10.09;80.93;100972.69;5029027;28;45293;-67
2022/03/12 02:53:56;;;;;;;;;4.00;2.50;;;;;10.05;81.18;100977.13;5042296;28;45433;-67
2022/03/12 02:56:23;;;;;;;;;1.50;1.00;;;;;10.06;81.67;100978.81;5022122;28;46177;-67
2022/03/12 02:58:48;;;;;;;;;6.00;3.00;;;;;10.08;81.26;100974.44;5034682;28;45716;-67
2022/03/12 03:01:16;;;;;;;;;4.00;2.25;;;;;10.11;80.94;100982.16;5041971;28;45675;-67
2022/03/12 03:03:46;;;;;;;;;2.75;2.75;;;;;10.12;80.89;100983.03;5041223;28;45353;-68
2022/03/12 03:06:15;;;;;;;;;3.50;3.50;;;;;10.12;80.77;100983.88;5029767;28;45287;-67
2022/03/12 03:08:42;;;;;;;;;3.00;3.00;;;;;10.10;81.08;100990.00;5028599;28;45368;-67
2022/03/12 03:11:13;;;;;;;;;4.75;3.25;;;;;10.11;80.84;101002.09;5033542;28;45389;-67
2022/03/12 03:13:44;;;;;;;;;6.75;4.00;;;;;10.09;80.54;100989.13;5033817;28;45396;-67
2022/03/12 03:16:24;;;;;;;;;6.75;4.00;;;;;10.09;80.71;100986.53;5030692;28;47471;-67
2022/03/12 03:18:53;;;;;;;;;2.75;2.50;;;;;10.12;80.20;100999.47;5036032;28;45232;-67
2022/03/12 03:21:22;;;;;;;;;5.50;4.00;;;;;10.10;80.57;100985.66;5034953;28;45247;-67
2022/03/12 03:23:47;;;;;;;;;5.00;3.50;;;;;10.06;80.54;100986.63;5027177;28;45529;-66
2022/03/12 03:26:18;;;;;;;;;4.00;4.00;;;;;10.03;80.71;100987.53;5041199;28;45328;-67
2022/03/12 03:28:44;;;;;;;;;3.75;3.25;;;;;10.02;80.55;100990.16;5029721;28;45347;-68
2022/03/12 03:31:09;;;;;;;;;3.25;2.50;;;;;9.98;81.38;101004.94;5036868;28;45305;-68
2022/03/12 03:33:35;;;;;;;;;3.00;2.50;;;;;9.94;81.40;101000.69;5028124;28;45273;-67
2022/03/12 03:36:00;;;;;;;;;4.50;3.25;;;;;9.89;81.56;100997.34;5021841;28;45263;-67
2022/03/12 03:38:26;;;;;;;;;8.50;6.00;;;;;9.87;81.86;100996.53;5038863;28;45267;-68
2022/03/12 03:40:51;;;;;;;;;1.00;1.00;;;;;9.85;81.66;101000.03;5041626;28;45218;-68
2022/03/12 03:43:22;;;;;;;;;4.00;3.25;;;;;9.86;81.62;100993.97;5028007;28;45252;-68
2022/03/12 03:45:56;;;;;;;;;4.00;2.25;;;;;9.85;82.00;100993.09;5036515;28;48142;-68
2022/03/12 03:48:23;;;;;;;;;8.00;4.25;;;;;9.83;82.06;100996.63;5021353;28;45376;-68
2022/03/12 03:50:50;;;;;;;;;7.00;3.00;;;;;9.80;81.92;100996.66;5034446;28;45477;-68
2022/03/12 03:53:18;;;;;;;;;4.75;4.25;;;;;9.80;81.70;100997.50;5033312;28;45238;-69
2022/03/12 03:55:44;;;;;;;;;3.75;3.00;;;;;9.81;82.12;101004.44;5034988;28;46960;-67
2022/03/12 03:58:14;;;;;;;;;3.50;3.25;;;;;9.83;81.38;101007.88;5036476;28;45312;-68
2022/03/12 04:00:52;;;;;;;;;7.00;3.00;;;;;9.81;81.89;101001.84;5024088;28;45362;-68
2022/03/12 04:03:19;;;;;;;;;2.50;2.50;;;;;9.80;81.43;101001.84;5029584;28;45486;-68
2022/03/12 04:05:44;;;;;;;;;4.25;3.50;;;;;9.77;81.46;101005.38;5036955;28;46288;-68
2022/03/12 04:08:10;;;;;;;;;4.00;4.00;;;;;9.73;81.75;101006.31;5040690;28;45233;-68
2022/03/12 04:10:36;;;;;;;;;6.00;3.75;;;;;9.73;81.77;101011.50;5027823;28;45350;-68
2022/03/12 04:13:14;;;;;;;;;2.00;2.00;;;;;9.71;81.71;101008.09;5029515;28;45475;-68
2022/03/12 04:15:40;;;;;;;;;2.00;2.00;;;;;9.70;81.72;101011.56;5020910;28;46802;-68
2022/03/12 04:18:07;;;;;;;;;4.25;3.00;;;;;9.70;81.70;101016.75;5033381;28;45204;-67
2022/03/12 04:20:34;;;;;;;;;3.00;2.00;;;;;9.72;81.54;101015.84;5028299;28;45228;-69
2022/03/12 04:23:00;;;;;;;;;3.00;3.00;;;;;9.71;82.02;101013.28;5027221;28;45169;-67
2022/03/12 04:25:25;;;;;;;;;4.75;2.75;;;;;9.71;81.74;101024.53;5033844;28;45362;-68
2022/03/12 04:27:51;;;;;;;;;3.25;3.00;;;;;9.67;81.91;101014.22;5033937;28;45366;-68
2022/03/12 04:30:20;;;;;;;;;9.75;5.00;;;;;9.60;81.62;101021.25;5028231;28;45309;-66
2022/03/12 04:32:46;;;;;;;;;3.00;2.00;;;;;9.53;82.01;101011.88;5037140;28;45591;-65
2022/03/12 04:35:12;;;;;;;;;5.25;3.00;;;;;9.48;82.14;101015.47;5039201;28;46666;-66
2022/03/12 04:37:38;;;;;;;;;6.25;3.00;;;;;9.44;81.69;101019.84;5038536;28;45262;-71
2022/03/12 04:40:10;;;;;;;;;4.25;2.50;;;;;9.39;82.82;101022.50;5039217;28;45513;-68
2022/03/12 04:42:44;;;;;;;;;7.00;3.25;;;;;9.38;82.08;101027.72;5040503;28;45406;-68
2022/03/12 04:45:15;;;;;;;;;2.00;2.00;;;;;9.36;82.78;101022.56;5028081;28;45466;-68
2022/03/12 04:47:43;;;;;;;;;2.75;2.75;;;;;9.32;82.85;101018.31;5039660;28;45386;-69
2022/03/12 04:50:10;;;;;;;;;5.50;3.75;;;;;9.30;82.84;101022.69;5031495;28;45442;-68
2022/03/12 04:52:36;;;;;;;;;2.25;2.25;;;;;9.29;83.32;101022.72;5033513;28;45262;-68
2022/03/12 04:55:10;;;;;;;;;6.00;5.00;;;;;9.32;83.41;101026.09;5029416;28;46185;-67
2022/03/12 04:57:36;;;;;;;;;4.00;4.00;;;;;9.30;82.46;101020.09;5026816;28;45203;-68
2022/03/12 05:00:09;;;;;;;;;3.00;3.00;;;;;9.32;82.96;101027.84;5029885;28;45400;-71
2022/03/12 05:02:34;;;;;;;;;6.75;3.50;;;;;9.34;83.53;101034.72;5033232;28;45538;-69
2022/03/12 05:04:59;;;;;;;;;6.00;6.00;;;;;9.35;82.27;101033.84;5031307;28;45398;-68
2022/03/12 05:07:26;;;;;;;;;2.00;2.00;;;;;9.36;83.05;101045.91;5021996;28;45515;-69
2022/03/12 05:09:55;;;;;;;;;3.00;3.00;;;;;9.38;83.07;101051.94;5031528;28;45500;-69
2022/03/12 05:12:26;;;;;;;;;6.00;4.25;;;;;9.42;83.23;101057.94;5022443;28;45408;-69
2022/03/12 05:14:53;;;;;;;;;2.25;2.25;;;;;9.47;83.19;101063.03;5032982;28;46648;-69
2022/03/12 05:17:22;;;;;;;;;5.50;2.00;;;;;9.48;83.03;101055.22;5038000;28;45399;-68
2022/03/12 05:19:48;;;;;;;;;7.00;5.00;;;;;9.45;82.92;101058.75;5026359;28;45503;-69
2022/03/12 05:22:13;;;;;;;;;4.00;4.00;;;;;9.44;82.19;101064.81;5033016;28;45427;-69
2022/03/12 05:24:38;;;;;;;;;6.00;4.00;;;;;9.44;83.14;101069.16;5032835;28;45396;-69
2022/03/12 05:27:06;;;;;;;;;9.00;4.50;;;;;9.48;82.78;101063.00;5027370;28;45416;-69
2022/03/12 05:29:31;;;;;;;;;3.00;3.00;;;;;9.54;82.98;101062.03;5026558;28;45256;-69
2022/03/12 05:31:57;;;;;;;;;9.00;6.25;;;;;9.54;82.58;101072.41;5032354;28;45348;-70
2022/03/12 05:34:25;;;;;;;;;5.00;3.00;;;;;9.55;82.25;101058.56;5033061;28;46243;-70
2022/03/12 05:36:51;;;;;;;;;5.00;4.00;;;;;9.58;82.29;101064.53;5025717;28;45876;-70
2022/03/12 05:39:18;;;;;;;;;6.00;4.00;;;;;9.58;82.87;101063.69;5039515;28;45296;-70
2022/03/12 05:41:47;;;;;;;;;6.75;3.00;;;;;9.59;82.17;101068.84;5033432;28;45605;-70
2022/03/12 05:44:14;;;;;;;;;2.75;2.75;;;;;9.65;82.26;101068.75;5032840;28;45264;-69
2022/03/12 05:46:43;;;;;;;;;5.50;5.00;;;;;9.70;81.84;101073.84;5025756;28;45223;-67
2022/03/12 05:49:09;;;;;;;;;7.75;4.00;;;;;9.68;82.10;101073.03;5038592;28;45528;-68
2022/03/12 05:51:36;;;;;;;;;5.75;3.00;;;;;9.67;82.14;101086.91;5026963;28;45556;-67
2022/03/12 05:54:03;;;;;;;;;7.50;4.00;;;;;9.66;81.69;101077.41;5026008;28;45367;-67
2022/03/12 05:56:29;;;;;;;;;3.25;3.25;;;;;9.64;81.62;101077.44;5031574;28;45286;-68
2022/03/12 05:58:54;;;;;;;;;5.75;3.00;;;;;9.68;81.68;101078.22;5033120;28;45479;-69
2022/03/12 06:01:19;;;;;;;;;5.50;4.50;;;;;9.68;81.99;101093.78;5027263;28;45510;-70
2022/03/12 06:03:45;;;;;;;;;5.50;3.75;;;;;9.68;81.56;101086.00;5025770;28;45217;-69
2022/03/12 06:06:11;;;;;;;;;8.00;6.00;;;;;9.65;81.62;101081.72;5031351;28;45332;-66
2022/03/12 06:08:36;;;;;;;;;7.00;5.25;;;;;9.62;81.37;101091.31;5031552;28;45388;-67
2022/03/12 06:11:02;;;;;;;;;7.50;6.25;;;;;9.59;81.47;101093.94;5027015;28;45673;-66
2022/03/12 06:13:28;;;;;;;;;6.50;3.75;;;;;9.57;82.17;101083.59;5024664;28;46652;-67
2022/03/12 06:15:58;;;;;;;;;5.00;3.25;;;;;9.59;82.16;101086.16;5027277;28;45730;-67
2022/03/12 06:18:33;;;;;;;;;7.50;6.00;;;;;9.56;82.07;101081.03;5024813;28;45258;-69
2022/03/12 06:20:59;;;;;;;;;6.75;5.50;;;;;9.53;82.33;101088.88;5036028;28;45175;-70
2022/03/12 06:23:24;;;;;;;;;4.50;4.50;;;;;9.54;81.55;101087.97;5038290;28;45392;-70
2022/03/12 06:25:51;;;;;;;;;3.25;3.25;;;;;9.58;81.80;101111.25;5038387;28;45236;-66
2022/03/12 06:28:17;;;;;;;;;6.50;4.00;;;;;9.57;81.54;101106.09;5035858;28;45339;-69
2022/03/12 06:30:42;;;;;;;;;5.00;5.00;;;;;9.64;81.88;101105.13;5038318;28;45481;-67
2022/03/12 06:33:09;;;;;;;;;7.00;3.00;;;;;9.68;81.66;101117.16;5038046;28;45500;-69
2022/03/12 06:35:34;;;;;;;;;6.25;3.00;;;;;9.71;81.11;101117.09;5038111;28;45334;-70
2022/03/12 06:38:00;;;;;;;;;6.25;6.25;;;;;9.72;81.13;101119.66;5038306;28;45331;-69
2022/03/12 06:40:28;;;;;;;;;4.75;4.50;;;;;9.69;80.82;101124.06;5039928;28;45428;-68
2022/03/12 06:42:55;;;;;;;;;5.00;4.50;;;;;9.65;80.82;101123.25;5041700;28;46240;-68
2022/03/12 06:45:21;;;;;;;;;7.75;6.75;;;;;9.65;80.67;101132.78;5033354;28;45374;-68
2022/03/12 06:47:47;;;;;;;;;6.00;6.00;;;;;9.63;80.67;101126.75;5035318;28;45489;-68
2022/03/12 06:50:19;;;;;;;;;7.00;6.25;;;;;9.69;81.02;101137.03;5031480;28;45272;-67
2022/03/12 06:52:48;;;;;;;;;7.00;4.50;;;;;9.71;81.02;101137.84;5023769;28;46693;-67
2022/03/12 06:55:15;;;;;;;;;8.75;5.50;;;;;9.73;80.89;101138.69;5032480;28;45382;-67
2022/03/12 06:57:40;;;;;;;;;7.00;6.75;;;;;9.71;80.03;101143.91;5028672;28;45334;-67
2022/03/12 07:00:12;;;;;;;;;4.00;3.50;;;;;9.72;80.34;101162.91;5031446;28;45258;-66
2022/03/12 07:02:38;;;;;;;;;4.50;4.50;;;;;9.70;80.15;101164.69;5035080;28;46162;-67
2022/03/12 07:05:05;;;;;;;;;7.00;5.00;;;;;9.68;80.40;101174.25;5031922;28;45464;-67
2022/03/12 07:07:31;;;;;;;;;4.50;4.50;;;;;9.66;79.88;101186.38;5036771;28;45443;-67
2022/03/12 07:09:56;;;;;;;;;4.50;3.50;;;;;9.64;80.26;101181.22;5033342;28;45293;-67
2022/03/12 07:12:21;;;;;;;;;2.00;2.00;;;;;9.64;79.59;101180.38;5023876;28;45190;-67
2022/03/12 07:14:47;;;;;;;;;2.75;2.75;;;;;9.57;79.73;101186.53;5033438;28;45256;-67
2022/03/12 07:17:12;;;;;;;;;5.50;3.75;;;;;9.49;80.00;101181.47;5028148;28;45388;-69
2022/03/12 07:19:38;;;;;;;;;5.75;3.50;;;;;9.50;80.28;101187.50;5030348;28;45419;-68
2022/03/12 07:22:03;;;;;;;;;4.00;3.00;;;;;9.57;80.45;101189.13;5037774;28;46535;-68
2022/03/12 07:24:29;;;;;;;;;6.00;3.00;;;;;9.60;80.30;101191.66;5040512;28;45224;-68
2022/03/12 07:26:54;;;;;;;;;7.25;4.25;;;;;9.68;79.82;101189.81;5041018;28;45439;-67
2022/03/12 07:29:20;;;;;;;;;4.25;4.25;;;;;9.70;79.92;101190.63;5040694;28;45363;-69
2022/03/12 07:31:45;;;;;;;;;3.00;3.00;;;;;9.69;79.78;101182.00;5039299;28;45374;-70
2022/03/12 07:34:10;;;;;;;;;4.00;4.00;;;;;9.81;80.13;101191.34;5029414;28;45414;-68
2022/03/12 07:36:36;;;;;;;;;8.00;5.75;;;;;9.90;79.87;101187.72;5033373;28;45545;-68
2022/03/12 07:39:03;;;;;;;;;2.00;2.00;;;;;9.91;79.53;101190.28;5032482;28;45422;-69
2022/03/12 07:41:30;;;;;;;;;4.50;2.75;;;;;9.91;79.67;101203.25;5040582;28;45433;-69
2022/03/12 07:43:56;;;;;;;;;3.00;3.00;;;;;9.99;79.69;101197.91;5039982;28;45327;-69
2022/03/12 07:46:21;;;;;;;;;5.75;5.50;;;;;10.09;79.53;101202.06;5027068;28;45476;-69
2022/03/12 07:48:47;;;;;;;;;4.00;4.00;;;;;10.16;79.14;101208.84;5040920;28;45397;-68
2022/03/12 07:51:13;;;;;;;;;5.25;3.75;;;;;10.22;78.90;101200.16;5026383;28;45561;-68
2022/03/12 07:53:39;;;;;;;;;3.75;3.75;;;;;10.29;78.84;101201.75;5030105;28;45350;-70
2022/03/12 07:56:06;;;;;;;;;3.00;3.00;;;;;10.34;78.38;101199.91;5034652;28;45309;-69
2022/03/12 07:58:32;;;;;;;;;5.75;5.75;;;;;10.35;78.32;101199.03;5032207;28;45554;-69
2022/03/12 08:00:58;;;;;;;;;4.50;4.00;;;;;10.40;77.94;101204.13;5034563;28;47236;-69
2022/03/12 08:03:24;;;;;;;;;3.50;3.50;;;;;10.40;77.66;101210.16;5032159;28;45336;-69
2022/03/12 08:05:50;;;;;;;;;6.75;6.25;;;;;10.43;78.02;101214.47;5027334;28;45395;-69
2022/03/12 08:08:17;;;;;;;;;9.50;6.50;;;;;10.41;77.45;101214.50;5029114;28;45343;-68
2022/03/12 08:13:27;;;;;;;;;7.75;3.75;;;;;10.39;77.88;101234.44;5022575;28;45221;-68
2022/03/12 08:15:53;;;;;;;;;6.00;6.00;;;;;10.44;77.49;101240.44;5032747;28;45297;-69
2022/03/12 08:18:19;;;;;;;;;8.00;6.00;;;;;10.46;77.51;101243.84;5033795;28;45293;-69
2022/03/12 08:20:44;;;;;;;;;8.00;6.25;;;;;10.51;77.23;101238.56;5021007;28;46265;-67
2022/03/12 08:23:11;;;;;;;;;6.50;6.00;;;;;10.47;77.07;101247.31;5035115;28;45225;-69
2022/03/12 08:25:36;;;;;;;;;5.75;4.00;;;;;10.46;77.23;101248.19;5036155;28;45373;-68
2022/03/12 08:28:02;;;;;;;;;7.00;4.50;;;;;10.50;77.70;101248.09;5039995;28;45328;-68
2022/03/12 08:30:28;;;;;;;;;6.25;4.50;;;;;10.58;77.17;101258.34;5039898;28;46372;-70
2022/03/12 08:32:53;;;;;;;;;4.00;3.00;;;;;10.52;76.85;101261.91;5039791;28;45257;-69
2022/03/12 08:35:18;;;;;;;;;7.00;3.75;;;;;10.42;77.43;101273.38;5040237;28;45329;-69
2022/03/12 08:37:44;;;;;;;;;3.00;3.00;;;;;10.40;77.37;101264.72;5038488;28;45525;-69
2022/03/12 08:40:14;;;;;;;;;6.00;6.00;;;;;10.42;77.04;101283.78;5039533;28;46121;-69
2022/03/12 08:42:40;;;;;;;;;5.50;5.00;;;;;10.49;77.28;101280.16;5037406;28;45755;-68
2022/03/12 08:45:07;;;;;;;;;9.75;6.75;;;;;10.55;77.46;101272.25;5040216;28;45291;-68
2022/03/12 08:47:33;;;;;;;;;7.50;6.25;;;;;10.60;77.03;101274.75;5038192;28;45423;-68
2022/03/12 08:49:58;;;;;;;;;4.25;3.25;;;;;10.52;76.73;101268.84;5032395;28;45519;-69
2022/03/12 08:52:25;;;;;;;;;6.00;4.00;;;;;10.53;76.65;101268.81;5033741;28;45265;-68
2022/03/12 08:54:50;;;;;;;;;6.00;3.75;;;;;10.62;77.13;101271.28;5028386;28;45346;-71
2022/03/12 08:57:16;;;;;;;;;6.00;4.00;;;;;10.74;76.76;101261.50;5026831;28;45346;-69
2022/03/12 08:59:41;;;;;;;;;6.00;6.00;;;;;10.84;76.45;101256.09;5032069;28;45167;-69
2022/03/12 09:02:08;;;;;;;;;7.00;4.00;;;;;10.97;76.72;101257.53;5032950;28;45403;-69
2022/03/12 09:04:34;;;;;;;;;5.50;5.50;;;;;11.10;76.05;101268.56;5040208;28;45403;-69
2022/03/12 09:07:00;;;;;;;;;6.75;6.00;;;;;11.21;75.89;101263.09;5038618;28;45339;-69
2022/03/12 09:09:25;;;;;;;;;4.50;4.00;;;;;11.28;75.45;101268.16;5031822;28;45404;-69
2022/03/12 09:11:51;;;;;;;;;7.75;4.00;;;;;11.33;75.37;101264.59;5033226;28;45332;-70
2022/03/12 09:14:17;;;;;;;;;8.25;7.00;;;;;11.34;74.99;101261.09;5020278;28;45312;-70
2022/03/12 09:16:42;;;;;;;;;7.50;7.50;;;;;11.35;75.09;101262.81;5034282;28;45316;-69
2022/03/12 09:19:08;;;;;;;;;6.75;4.00;;;;;11.39;75.23;101264.44;5031801;28;46176;-67
2022/03/12 09:21:35;;;;;;;;;4.75;4.75;;;;;11.46;75.12;101272.09;5033099;28;45300;-70
2022/03/12 09:24:03;;;;;;;;;3.50;2.50;;;;;11.56;74.81;101262.31;5028315;28;45249;-69
2022/03/12 09:26:29;;;;;;;;;8.75;4.50;;;;;11.61;74.48;101257.00;5038304;28;45517;-71
2022/03/12 09:28:54;;;;;;;;;8.00;5.00;;;;;11.64;74.54;101252.63;5031676;28;46316;-70
2022/03/12 09:31:20;;;;;;;;;8.00;7.00;;;;;11.69;74.09;101261.16;5032729;28;45380;-69
2022/03/12 09:33:46;;;;;;;;;8.25;5.75;;;;;11.69;73.90;101262.91;5026740;28;45415;-69
2022/03/12 09:36:11;;;;;;;;;5.25;5.25;;;;;11.67;74.18;101264.69;5037758;28;45494;-71
2022/03/12 09:38:37;;;;;;;;;5.00;5.00;;;;;11.66;74.50;101265.59;5028017;28;45286;-69
2022/03/12 09:41:03;;;;;;;;;7.00;4.75;;;;;11.61;74.35;101262.22;5038957;28;45709;-70
2022/03/12 09:43:29;;;;;;;;;4.25;4.25;;;;;11.61;74.15;101267.41;5026807;28;45478;-68
2022/03/12 09:45:54;;;;;;;;;7.50;5.00;;;;;11.61;74.63;101257.88;5025195;28;45305;-68
2022/03/12 09:48:20;;;;;;;;;6.75;4.25;;;;;11.72;74.18;101255.03;5026689;28;46340;-68
2022/03/12 09:50:45;;;;;;;;;9.00;8.00;;;;;11.79;74.25;101260.06;5026017;28;45331;-69
2022/03/12 09:53:11;;;;;;;;;7.00;5.25;;;;;11.87;74.24;101252.94;5038169;28;45275;-68
2022/03/12 09:55:38;;;;;;;;;4.00;4.00;;;;;11.96;74.42;101256.19;5052420;28;45901;-68
2022/03/12 09:58:04;;;;;;;;;5.50;4.00;;;;;12.08;73.92;101255.91;5039530;28;45424;-68
2022/03/12 10:00:29;;;;;;;;;4.75;4.75;;;;;12.24;73.82;101252.00;5025689;28;45217;-67
2022/03/12 10:02:55;;;;;;;;;8.00;5.00;;;;;12.36;73.21;101258.63;5039409;28;45392;-67
2022/03/12 10:05:20;;;;;;;;;4.25;3.50;;;;;12.40;72.83;101253.28;5038492;28;45352;-67
2022/03/12 10:07:45;;;;;;;;;7.25;4.75;;;;;12.48;72.21;101256.56;5026562;28;46613;-69
2022/03/12 10:10:17;;;;;;;;;13.50;9.25;;;;;12.48;72.72;101264.38;5034056;28;45350;-70
2022/03/12 10:12:43;;;;;;;;;7.00;7.00;;;;;12.61;72.81;101271.84;5038832;28;45514;-67
2022/03/12 10:15:12;;;;;;;;;7.50;6.00;;;;;12.72;72.25;101254.19;5027384;28;45281;-67
2022/03/12 10:17:38;;;;;;;;;4.75;3.75;;;;;12.80;71.95;101252.19;5040866;28;47328;-67
2022/03/12 10:20:06;;;;;;;;;7.00;5.00;;;;;12.83;71.19;101259.09;5040226;28;45714;-68
2022/03/12 10:22:32;;;;;;;;;3.00;3.00;;;;;12.83;70.51;101257.34;5032215;28;45344;-68
2022/03/12 10:24:58;;;;;;;;;2.75;2.25;;;;;12.87;71.03;101266.78;5037891;28;45427;-68
2022/03/12 10:27:23;;;;;;;;;3.75;3.75;;;;;12.98;71.33;101243.84;5032362;28;45229;-67
2022/03/12 10:29:50;;;;;;;;;6.25;4.00;;;;;12.99;70.45;101242.94;5040970;28;45249;-72
2022/03/12 10:32:24;;;;;;;;;5.75;4.00;;;;;13.04;71.02;101235.00;5032361;28;45248;-74
2022/03/12 10:34:56;;;;;;;;;5.25;4.00;;;;;13.11;70.46;101239.13;5035588;28;45322;-71
2022/03/12 10:37:25;;;;;;;;;4.75;4.75;;;;;13.16;70.16;101241.59;5034444;28;46095;-68
2022/03/12 10:40:06;;;;;;;;;3.50;3.00;;;;;13.19;69.96;101225.88;5035088;28;45467;-73
2022/03/12 10:42:33;;;;;;;;;5.50;5.50;;;;;13.29;69.88;101238.59;5033772;28;45350;-72
2022/03/12 10:45:15;;;;;;;;;6.25;4.75;;;;;13.27;69.64;101236.94;5041529;28;45407;-67
2022/03/12 10:47:47;;;;;;;;;3.00;3.00;;;;;13.23;69.70;101237.94;5038456;28;46650;-74
2022/03/12 10:50:22;;;;;;;;;3.75;3.00;;;;;13.32;69.55;101235.03;5040046;28;45339;-68
2022/03/12 10:52:50;;;;;;;;;7.00;4.75;;;;;13.24;68.50;101242.28;5040082;28;45459;-73
2022/03/12 10:55:27;;;;;;;;;4.50;3.75;;;;;13.01;69.15;101241.16;5037689;28;45596;-75
2022/03/12 10:57:59;;;;;;;;;4.25;4.00;;;;;12.84;69.41;101232.97;5040014;28;47299;-70
2022/03/12 11:00:26;;;;;;;;;6.25;4.25;;;;;12.87;69.83;101232.03;5037795;28;45472;-71
2022/03/12 11:02:57;;;;;;;;;5.00;4.00;;;;;12.97;69.58;101233.47;5040863;28;45287;-73
2022/03/12 11:05:34;;;;;;;;;4.50;4.00;;;;;12.99;69.86;101227.28;5056424;28;45483;-75
2022/03/12 11:08:27;;;;;;;;;7.00;4.25;;;;;13.08;69.42;101221.81;5037417;28;47957;-70
2022/03/12 11:11:06;;;;;;;;;5.75;4.00;;;;;13.04;69.01;101220.19;5053362;28;45810;-70
2022/03/12 11:13:46;;;;;;;;;7.50;7.50;;;;;12.99;69.62;101216.84;5054578;28;45509;-69
2022/03/12 11:16:14;;;;;;;;;8.25;7.50;;;;;13.07;69.81;101220.09;5040280;28;45704;-66
2022/03/12 11:18:52;;;;;;;;;10.00;7.00;;;;;13.21;69.83;101213.63;5038968;28;47147;-68
2022/03/12 11:21:30;;;;;;;;;8.75;6.50;;;;;13.30;69.64;101213.34;5037670;28;46614;-72
2022/03/12 11:23:57;;;;;;;;;8.00;4.00;;;;;13.36;69.27;101211.41;5035977;28;46512;-68
2022/03/12 11:26:24;;;;;;;;;5.25;4.75;;;;;13.38;68.77;101209.59;5039273;28;45461;-65
2022/03/12 11:28:57;;;;;;;;;6.75;5.00;;;;;13.34;68.58;101210.59;5039832;28;45456;-64
2022/03/12 11:31:53;;;;;;;;;6.50;5.75;;;;;13.27;68.77;101206.47;5039477;28;45355;-66